createdAt,value
2023-02-19T00:01:26.099Z,3.22
2023-02-19T00:03:58.189Z,2.85
2023-02-19T00:06:26.696Z,2.60
2023-02-19T00:08:53.307Z,2.22
2023-02-19T00:11:22.215Z,2.42
2023-02-19T00:13:50.670Z,2.38
2023-02-19T00:16:26.125Z,2.70
2023-02-19T00:18:53.597Z,2.83
2023-02-19T00:21:20.502Z,2.47
2023-02-19T00:23:51.002Z,2.90
2023-02-19T00:26:18.978Z,2.90
2023-02-19T00:28:46.657Z,1.92
2023-02-19T00:31:27.772Z,2.42
2023-02-19T00:33:57.075Z,2.00
2023-02-19T00:36:24.396Z,1.55
2023-02-19T00:38:51.445Z,3.25
2023-02-19T00:41:19.383Z,2.20
2023-02-19T00:43:47.677Z,2.60
2023-02-19T00:46:14.939Z,2.78
2023-02-19T00:48:41.297Z,2.75
2023-02-19T00:51:07.845Z,3.15
2023-02-19T00:53:34.449Z,2.83
2023-02-19T00:56:00.928Z,2.88
2023-02-19T00:58:27.318Z,2.17
2023-02-19T01:00:53.664Z,2.97
2023-02-19T01:03:22.465Z,2.50
2023-02-19T01:05:50.125Z,2.88
2023-02-19T01:08:16.700Z,2.22
2023-02-19T01:10:43.369Z,2.95
2023-02-19T01:13:10.261Z,2.42
2023-02-19T01:15:36.857Z,2.70
2023-02-19T01:18:03.420Z,2.75
2023-02-19T01:20:29.871Z,2.85
2023-02-19T01:22:56.240Z,1.40
2023-02-19T01:25:22.642Z,2.88
2023-02-19T01:27:49.163Z,2.70
2023-02-19T01:30:15.574Z,2.20
2023-02-19T01:32:41.921Z,3.15
2023-02-19T01:35:08.317Z,2.85
2023-02-19T01:37:34.629Z,3.10
2023-02-19T01:40:00.972Z,2.88
2023-02-19T01:42:27.372Z,2.90
2023-02-19T01:45:18.574Z,2.08
2023-02-19T01:47:46.402Z,2.58
2023-02-19T01:50:12.852Z,2.60
2023-02-19T01:52:39.224Z,2.45
2023-02-19T01:55:07.537Z,2.72
2023-02-19T01:57:37.329Z,2.35
2023-02-19T02:00:08.229Z,2.50
2023-02-19T02:02:34.622Z,2.97
2023-02-19T02:05:01.660Z,3.13
2023-02-19T02:07:46.532Z,2.58
2023-02-19T02:10:21.752Z,2.28
2023-02-19T02:12:52.948Z,2.33
2023-02-19T02:15:19.512Z,2.88
2023-02-19T02:17:54.846Z,3.58
2023-02-19T02:20:36.593Z,1.85
2023-02-19T02:23:10.815Z,2.90
2023-02-19T02:28:28.504Z,2.55
2023-02-19T02:30:57.144Z,2.45
2023-02-19T02:33:42.014Z,2.40
2023-02-19T02:36:24.600Z,1.88
2023-02-19T02:38:54.005Z,1.67
2023-02-19T02:41:20.812Z,2.13
2023-02-19T02:43:47.136Z,2.13
2023-02-19T02:46:19.343Z,2.00
2023-02-19T02:48:53.733Z,2.20
2023-02-19T02:51:41.696Z,2.22
2023-02-19T02:54:33.299Z,2.15
2023-02-19T02:56:59.786Z,2.28
2023-02-19T02:59:29.202Z,1.77
2023-02-19T03:02:12.267Z,1.58
2023-02-19T03:05:23.805Z,2.00
2023-02-19T03:08:00.894Z,1.50
2023-02-19T03:10:32.555Z,2.58
2023-02-19T03:13:17.865Z,2.22
2023-02-19T03:16:20.677Z,1.75
2023-02-19T03:19:08.680Z,2.03
2023-02-19T03:21:38.073Z,1.40
2023-02-19T03:24:24.416Z,1.27
2023-02-19T03:26:53.831Z,1.55
2023-02-19T03:29:25.846Z,1.40
2023-02-19T03:31:55.432Z,1.75
2023-02-19T03:34:35.334Z,1.38
2023-02-19T03:37:06.954Z,1.40
2023-02-19T03:39:33.361Z,1.80
2023-02-19T03:42:06.081Z,1.30
2023-02-19T03:44:44.310Z,1.90
2023-02-19T03:47:18.114Z,1.38
2023-02-19T03:50:00.893Z,1.70
2023-02-19T03:53:06.463Z,1.10
2023-02-19T03:55:47.995Z,1.30
2023-02-19T03:58:28.929Z,1.55
2023-02-19T04:01:00.276Z,0.85
2023-02-19T04:03:40.864Z,1.67
2023-02-19T04:06:36.717Z,1.23
2023-02-19T04:09:06.671Z,1.20
2023-02-19T04:11:33.303Z,1.73
2023-02-19T04:14:07.790Z,1.52
2023-02-19T04:16:37.146Z,1.13
2023-02-19T04:19:08.405Z,1.70
2023-02-19T04:21:36.418Z,1.65
2023-02-19T04:24:10.417Z,1.80
2023-02-19T04:26:36.959Z,1.48
2023-02-19T04:29:03.333Z,1.63
2023-02-19T04:31:31.334Z,1.35
2023-02-19T04:33:57.829Z,1.20
2023-02-19T04:36:24.181Z,1.40
2023-02-19T04:38:50.573Z,1.55
2023-02-19T04:41:16.928Z,1.38
2023-02-19T04:43:43.243Z,1.30
2023-02-19T04:46:09.627Z,0.73
2023-02-19T04:48:36.028Z,1.05
2023-02-19T04:51:06.972Z,1.20
2023-02-19T04:53:33.745Z,1.33
2023-02-19T04:56:06.573Z,1.10
2023-02-19T04:58:33.298Z,1.00
2023-02-19T05:00:59.660Z,1.33
2023-02-19T05:03:25.998Z,1.10
2023-02-19T05:05:52.354Z,1.40
2023-02-19T05:08:18.957Z,0.93
2023-02-19T05:10:45.272Z,1.13
2023-02-19T05:13:11.628Z,0.77
2023-02-19T05:15:38.005Z,0.60
2023-02-19T05:18:04.667Z,1.10
2023-02-19T05:20:30.990Z,0.90
2023-02-19T05:22:57.338Z,0.73
2023-02-19T05:25:23.751Z,0.63
2023-02-19T05:27:50.067Z,0.47
2023-02-19T05:30:16.447Z,0.75
2023-02-19T05:32:42.812Z,0.60
2023-02-19T05:35:09.140Z,0.82
2023-02-19T05:37:35.472Z,0.95
2023-02-19T05:40:01.827Z,0.30
2023-02-19T05:42:30.926Z,0.52
2023-02-19T05:44:57.331Z,0.68
2023-02-19T05:47:23.694Z,0.88
2023-02-19T05:49:50.022Z,0.68
2023-02-19T05:52:16.360Z,0.80
2023-02-19T05:54:42.718Z,0.70
2023-02-19T05:57:09.098Z,0.73
2023-02-19T05:59:35.411Z,0.70
2023-02-19T06:02:01.812Z,0.90
2023-02-19T06:04:28.183Z,0.63
2023-02-19T06:06:54.578Z,0.90
2023-02-19T06:09:20.913Z,1.05
2023-02-19T06:11:47.261Z,0.98
2023-02-19T06:14:14.147Z,1.13
2023-02-19T06:16:40.603Z,1.20
2023-02-19T06:19:06.978Z,0.77
2023-02-19T06:21:33.388Z,0.90
2023-02-19T06:24:04.732Z,0.98
2023-02-19T06:26:31.101Z,1.40
2023-02-19T06:28:57.431Z,0.93
2023-02-19T06:31:23.897Z,1.10
2023-02-19T06:33:53.000Z,1.20
2023-02-19T06:36:20.775Z,1.30
2023-02-19T06:41:14.334Z,1.23
2023-02-19T06:43:41.817Z,1.75
2023-02-19T06:46:08.505Z,1.30
2023-02-19T06:48:35.342Z,1.08
2023-02-19T06:51:02.074Z,1.40
2023-02-19T06:53:28.569Z,1.05
2023-02-19T06:56:05.952Z,1.40
2023-02-19T06:58:32.551Z,1.50
2023-02-19T07:00:59.046Z,0.68
2023-02-19T07:03:28.724Z,1.00
2023-02-19T07:05:55.122Z,1.40
2023-02-19T07:08:21.509Z,0.95
2023-02-19T07:10:57.637Z,1.60
2023-02-19T07:13:24.786Z,1.42
2023-02-19T07:15:52.344Z,1.40
2023-02-19T07:18:18.860Z,1.30
2023-02-19T07:20:45.364Z,1.20
2023-02-19T07:23:11.671Z,0.85
2023-02-19T07:25:38.554Z,1.08
2023-02-19T07:28:05.350Z,1.02
2023-02-19T07:30:31.757Z,1.13
2023-02-19T07:32:58.144Z,1.45
2023-02-19T07:35:24.492Z,1.05
2023-02-19T07:37:50.853Z,1.00
2023-02-19T07:40:17.242Z,1.98
2023-02-19T07:42:43.565Z,1.80
2023-02-19T07:45:09.926Z,1.88
2023-02-19T07:47:36.339Z,1.60
2023-02-19T07:50:02.687Z,1.30
2023-02-19T07:52:29.057Z,1.50
2023-02-19T07:54:55.486Z,1.52
2023-02-19T07:57:21.804Z,1.45
2023-02-19T07:59:48.132Z,1.60
2023-02-19T08:02:37.470Z,1.73
2023-02-19T08:05:05.083Z,1.65
2023-02-19T08:07:35.613Z,1.45
2023-02-19T08:10:21.422Z,1.50
2023-02-19T08:13:16.888Z,1.90
2023-02-19T08:15:43.575Z,1.65
2023-02-19T08:18:10.528Z,1.70
2023-02-19T08:20:36.877Z,1.48
2023-02-19T08:23:03.488Z,1.33
2023-02-19T08:25:29.886Z,1.73
2023-02-19T08:27:56.266Z,1.48
2023-02-19T08:30:23.742Z,1.05
2023-02-19T08:32:50.174Z,1.60
2023-02-19T08:35:16.565Z,1.63
2023-02-19T08:37:42.889Z,1.70
2023-02-19T08:40:09.680Z,1.55
2023-02-19T08:42:35.990Z,1.83
2023-02-19T08:45:02.569Z,2.00
2023-02-19T08:47:28.921Z,1.60
2023-02-19T08:49:55.272Z,1.83
2023-02-19T08:52:21.625Z,1.60
2023-02-19T08:54:48.020Z,1.30
2023-02-19T08:57:14.610Z,1.73
2023-02-19T08:59:40.994Z,1.63
2023-02-19T09:02:09.106Z,1.67
2023-02-19T09:04:37.635Z,0.80
2023-02-19T09:07:07.588Z,1.60
2023-02-19T09:09:34.161Z,2.10
2023-02-19T09:12:00.493Z,1.60
2023-02-19T09:14:26.868Z,1.80
2023-02-19T09:16:53.184Z,1.50
2023-02-19T09:19:19.573Z,1.80
2023-02-19T09:21:45.922Z,1.92
2023-02-19T09:24:12.250Z,1.25
2023-02-19T09:26:38.756Z,1.77
2023-02-19T09:29:05.285Z,1.60
2023-02-19T09:31:32.540Z,1.80
2023-02-19T09:33:58.934Z,1.65
2023-02-19T09:36:25.315Z,2.05
2023-02-19T09:38:51.634Z,1.60
2023-02-19T09:41:39.675Z,1.33
2023-02-19T09:44:07.410Z,1.95
2023-02-19T09:49:10.930Z,2.10
2023-02-19T09:51:38.029Z,1.85
2023-02-19T09:54:05.817Z,1.48
2023-02-19T09:58:59.475Z,1.75
2023-02-19T10:01:28.289Z,1.55
2023-02-19T10:03:54.845Z,2.22
2023-02-19T10:06:24.033Z,1.77
2023-02-19T10:09:11.669Z,2.35
2023-02-19T10:11:38.405Z,2.33
2023-02-19T10:14:10.579Z,1.95
2023-02-19T10:16:40.733Z,2.13
2023-02-19T10:19:11.784Z,1.63
2023-02-19T10:21:38.512Z,2.25
2023-02-19T10:24:06.107Z,2.25
2023-02-19T10:26:35.261Z,2.22
2023-02-19T10:29:03.004Z,2.45
2023-02-19T10:34:00.188Z,2.30
2023-02-19T10:36:33.851Z,1.27
2023-02-19T10:39:02.189Z,1.52
2023-02-19T10:41:28.891Z,2.20
2023-02-19T10:44:14.796Z,2.13
2023-02-19T10:46:46.225Z,1.88
2023-02-19T10:49:21.706Z,1.95
2023-02-19T10:51:48.885Z,2.92
2023-02-19T10:54:35.953Z,2.63
2023-02-19T11:00:04.385Z,1.88
2023-02-19T11:05:20.708Z,1.92
2023-02-19T11:07:49.861Z,2.15
2023-02-19T11:10:34.531Z,1.95
2023-02-19T11:13:02.940Z,2.70
2023-02-19T11:15:34.317Z,2.47
2023-02-19T11:18:12.867Z,2.65
2023-02-19T11:20:49.111Z,2.00
2023-02-19T11:23:19.277Z,2.60
2023-02-19T11:25:50.089Z,2.47
2023-02-19T11:28:16.304Z,2.63
2023-02-19T11:30:43.945Z,2.75
2023-02-19T11:35:39.750Z,1.90
2023-02-19T11:38:09.279Z,2.63
2023-02-19T11:40:50.598Z,2.60
2023-02-19T11:43:44.477Z,2.35
2023-02-19T11:46:28.035Z,1.63
2023-02-19T11:49:00.136Z,2.83
2023-02-19T11:51:39.936Z,1.80
2023-02-19T11:54:44.748Z,1.92
2023-02-19T11:57:26.143Z,2.13
2023-02-19T12:00:01.864Z,2.00
2023-02-19T12:02:44.140Z,1.67
2023-02-19T12:05:17.905Z,2.00
2023-02-19T12:08:14.329Z,1.98
2023-02-19T12:10:53.073Z,1.92
2023-02-19T12:13:40.756Z,2.05
2023-02-19T12:16:18.149Z,2.08
2023-02-19T12:18:59.409Z,2.25
2023-02-19T12:21:51.380Z,2.03
2023-02-19T12:24:45.652Z,1.67
2023-02-19T12:27:52.449Z,1.95
2023-02-19T12:30:31.761Z,1.75
2023-02-19T12:33:04.133Z,1.92
2023-02-19T12:35:30.358Z,1.25
2023-02-19T12:38:29.516Z,1.90
2023-02-19T12:41:10.365Z,2.05
2023-02-19T12:43:37.839Z,1.50
2023-02-19T12:46:13.668Z,2.67
2023-02-19T12:48:40.323Z,2.33
2023-02-19T12:51:25.330Z,1.40
2023-02-19T12:53:54.724Z,1.95
2023-02-19T12:56:26.426Z,1.95
2023-02-19T12:58:59.150Z,2.55
2023-02-19T13:01:33.825Z,2.13
2023-02-19T13:04:13.673Z,2.60
2023-02-19T13:06:45.061Z,2.33
2023-02-19T13:09:28.124Z,2.35
2023-02-19T13:12:16.816Z,2.35
2023-02-19T13:14:49.485Z,1.83
2023-02-19T13:17:42.586Z,2.30
2023-02-19T13:20:27.328Z,2.05
2023-02-19T13:23:49.959Z,2.10
2023-02-19T13:26:21.979Z,2.00
2023-02-19T13:29:13.265Z,2.13
2023-02-19T13:31:46.938Z,2.25
2023-02-19T13:34:15.923Z,2.58
2023-02-19T13:36:42.397Z,2.20
2023-02-19T13:41:50.273Z,1.88
2023-02-19T13:44:19.069Z,2.55
2023-02-19T13:46:46.475Z,1.85
2023-02-19T13:49:40.006Z,1.23
2023-02-19T13:52:33.166Z,1.90
2023-02-19T13:55:40.737Z,1.75
2023-02-19T13:58:35.786Z,1.80
2023-02-19T14:01:13.781Z,2.10
2023-02-19T14:03:55.029Z,2.03
2023-02-19T14:06:21.615Z,1.50
2023-02-19T14:08:52.473Z,1.63
2023-02-19T14:11:41.271Z,1.58
2023-02-19T14:14:22.853Z,1.92
2023-02-19T14:16:52.758Z,1.40
2023-02-19T14:19:40.980Z,1.65
2023-02-19T14:22:49.705Z,1.73
2023-02-19T14:25:31.281Z,1.02
2023-02-19T14:28:36.052Z,2.20
2023-02-19T14:31:14.490Z,2.30
2023-02-19T14:34:25.041Z,2.13
2023-02-19T14:36:53.850Z,1.85
2023-02-19T14:39:31.084Z,1.75
2023-02-19T14:42:03.062Z,1.42
2023-02-19T14:44:31.657Z,1.35
2023-02-19T14:47:11.425Z,1.25
2023-02-19T14:49:54.392Z,1.13
2023-02-19T14:52:28.181Z,1.52
2023-02-19T14:54:57.851Z,1.27
2023-02-19T14:57:29.182Z,1.23
2023-02-19T15:00:00.811Z,1.10
2023-02-19T15:02:29.034Z,1.58
2023-02-19T15:04:55.760Z,0.88
2023-02-19T15:07:29.510Z,1.50
2023-02-19T15:10:02.924Z,1.55
2023-02-19T15:12:40.869Z,1.27
2023-02-19T15:15:07.751Z,1.17
2023-02-19T15:17:36.077Z,2.13
2023-02-19T15:20:10.624Z,1.42
2023-02-19T15:22:39.764Z,1.85
2023-02-19T15:25:06.448Z,1.90
2023-02-19T15:27:34.223Z,1.65
2023-02-19T15:30:00.662Z,1.80
2023-02-19T15:32:27.846Z,1.80
2023-02-19T15:35:02.706Z,1.38
2023-02-19T15:37:31.252Z,1.25
2023-02-19T15:39:59.447Z,1.70
2023-02-19T15:42:28.939Z,1.55
2023-02-19T15:45:04.096Z,1.45
2023-02-19T15:47:45.670Z,1.60
2023-02-19T15:50:27.195Z,1.52
2023-02-19T15:53:09.965Z,1.00
2023-02-19T15:55:39.195Z,1.80
2023-02-19T15:58:27.693Z,1.17
2023-02-19T16:00:57.097Z,1.48
2023-02-19T16:03:25.397Z,1.38
2023-02-19T16:06:14.919Z,1.08
2023-02-19T16:08:46.096Z,1.40
2023-02-19T16:11:36.844Z,1.60
2023-02-19T16:14:18.468Z,1.60
2023-02-19T16:16:46.605Z,1.38
2023-02-19T16:19:13.002Z,1.42
2023-02-19T16:21:39.618Z,0.70
2023-02-19T16:24:18.909Z,1.33
2023-02-19T16:26:45.518Z,0.80
2023-02-19T16:29:20.301Z,1.20
2023-02-19T16:31:56.072Z,1.30
2023-02-19T16:34:42.961Z,1.52
2023-02-19T16:37:29.874Z,1.63
2023-02-19T16:40:08.397Z,2.05
2023-02-19T16:42:50.540Z,1.23
2023-02-19T16:45:17.738Z,1.27
2023-02-19T16:47:51.236Z,1.65
2023-02-19T16:50:20.715Z,1.33
2023-02-19T16:52:58.155Z,1.30
2023-02-19T16:55:24.904Z,1.10
2023-02-19T16:57:52.650Z,1.50
2023-02-19T17:03:11.538Z,1.50
2023-02-19T17:05:44.416Z,1.58
2023-02-19T17:08:22.982Z,1.70
2023-02-19T17:10:49.306Z,1.73
2023-02-19T17:13:15.714Z,1.80
2023-02-19T17:15:42.054Z,1.60
2023-02-19T17:18:10.143Z,1.50
2023-02-19T17:20:36.572Z,1.02
2023-02-19T17:23:02.994Z,2.08
2023-02-19T17:25:29.370Z,1.80
2023-02-19T17:27:55.715Z,1.92
2023-02-19T17:30:28.967Z,1.48
2023-02-19T17:32:55.396Z,1.83
2023-02-19T17:35:22.001Z,1.85
2023-02-19T17:37:48.622Z,2.00
2023-02-19T17:40:33.874Z,1.60
2023-02-19T17:43:00.705Z,1.92
2023-02-19T17:45:27.301Z,2.30
2023-02-19T17:47:53.720Z,3.28
2023-02-19T17:50:23.480Z,3.92
2023-02-19T17:52:49.916Z,3.25
2023-02-19T17:55:18.158Z,3.30
2023-02-19T17:57:45.427Z,5.43
2023-02-19T18:00:16.691Z,2.30
2023-02-19T18:02:43.041Z,2.50
2023-02-19T18:05:10.002Z,4.00
2023-02-19T18:07:36.376Z,2.05
2023-02-19T18:10:03.725Z,2.20
2023-02-19T18:12:30.094Z,2.30
2023-02-19T18:14:57.161Z,2.15
2023-02-19T18:17:24.148Z,3.13
2023-02-19T18:19:50.772Z,2.30
2023-02-19T18:22:17.210Z,1.98
2023-02-19T18:24:48.118Z,1.80
2023-02-19T18:27:15.245Z,1.92
2023-02-19T18:29:41.634Z,1.92
2023-02-19T18:32:08.091Z,1.80
2023-02-19T18:34:34.565Z,2.00
2023-02-19T18:37:01.183Z,1.90
2023-02-19T18:39:27.515Z,1.85
2023-02-19T18:41:53.826Z,2.03
2023-02-19T18:44:21.561Z,2.28
2023-02-19T18:49:14.773Z,1.90
2023-02-19T18:51:41.134Z,1.75
2023-02-19T18:54:07.877Z,2.80
2023-02-19T18:56:44.198Z,2.33
2023-02-19T18:59:10.816Z,2.17
2023-02-19T19:01:37.235Z,1.98
2023-02-19T19:04:03.924Z,2.20
2023-02-19T19:06:30.376Z,0.98
2023-02-19T19:08:58.179Z,1.85
2023-02-19T19:11:25.529Z,2.65
2023-02-19T19:13:52.266Z,3.00
2023-02-19T19:16:18.861Z,2.50
2023-02-19T19:18:47.171Z,2.30
2023-02-19T19:21:14.922Z,2.25
2023-02-19T19:26:07.814Z,2.03
2023-02-19T19:28:34.247Z,2.33
2023-02-19T19:31:00.746Z,2.58
2023-02-19T19:33:28.080Z,2.25
2023-02-19T19:35:54.606Z,2.30
2023-02-19T19:38:20.945Z,2.83
2023-02-19T19:40:47.276Z,2.15
2023-02-19T19:43:13.666Z,2.45
2023-02-19T19:45:40.071Z,2.58
2023-02-19T19:48:06.530Z,2.60
2023-02-19T19:50:32.857Z,2.92
2023-02-19T19:52:59.458Z,3.00
2023-02-19T19:55:25.845Z,2.47
2023-02-19T19:57:53.815Z,2.45
2023-02-19T20:00:20.575Z,2.83
2023-02-19T20:02:47.009Z,3.25
2023-02-19T20:05:14.052Z,2.42
2023-02-19T20:07:40.452Z,2.70
2023-02-19T20:10:08.280Z,3.33
2023-02-19T20:12:34.667Z,2.65
2023-02-19T20:15:01.011Z,2.45
2023-02-19T20:17:28.784Z,2.05
2023-02-19T20:22:21.785Z,2.42
2023-02-19T20:24:51.994Z,3.10
2023-02-19T20:27:19.299Z,3.17
2023-02-19T20:29:45.756Z,3.00
2023-02-19T20:32:13.220Z,2.40
2023-02-19T20:34:39.943Z,2.10
2023-02-19T20:37:07.295Z,2.33
2023-02-19T20:39:34.924Z,3.22
2023-02-19T20:42:03.654Z,3.42
2023-02-19T20:44:30.526Z,2.33
2023-02-19T20:46:58.272Z,3.20
2023-02-19T20:54:22.458Z,2.80
2023-02-19T20:56:50.685Z,2.42
2023-02-19T20:59:18.210Z,2.97
2023-02-19T21:01:44.621Z,3.13
2023-02-19T21:04:11.459Z,3.10
2023-02-19T21:06:38.072Z,3.00
2023-02-19T21:09:05.587Z,3.20
2023-02-19T21:11:32.499Z,3.15
2023-02-19T21:13:59.323Z,3.33
2023-02-19T21:16:26.779Z,3.30
2023-02-19T21:18:53.432Z,3.10
2023-02-19T21:21:21.115Z,3.00
2023-02-19T21:23:47.625Z,3.70
2023-02-19T21:26:14.187Z,3.08
2023-02-19T21:28:40.590Z,3.30
2023-02-19T21:31:06.962Z,3.45
2023-02-19T21:33:33.356Z,2.92
2023-02-19T21:36:02.134Z,3.95
2023-02-19T21:38:28.535Z,3.53
2023-02-19T21:40:54.872Z,3.33
2023-02-19T21:43:21.326Z,3.50
2023-02-19T21:45:47.703Z,3.60
2023-02-19T21:48:14.196Z,3.20
2023-02-19T21:50:41.966Z,3.42
2023-02-19T21:55:34.604Z,3.33
2023-02-19T21:58:00.986Z,3.38
2023-02-19T22:00:27.330Z,3.70
2023-02-19T22:02:53.861Z,3.40
2023-02-19T22:05:20.242Z,3.42
2023-02-19T22:07:47.653Z,3.60
2023-02-19T22:10:15.197Z,3.38
2023-02-19T22:12:41.499Z,3.80
2023-02-19T22:15:07.932Z,3.72
2023-02-19T22:17:34.270Z,3.63
2023-02-19T22:20:00.646Z,3.50
2023-02-19T22:22:26.997Z,3.90
2023-02-19T22:24:53.418Z,3.33
2023-02-19T22:27:19.777Z,3.90
2023-02-19T22:29:46.161Z,3.60
2023-02-19T22:32:12.556Z,4.03
2023-02-19T22:34:40.435Z,3.53
2023-02-19T22:39:33.046Z,2.63
2023-02-19T22:41:59.443Z,2.80
2023-02-19T22:44:25.831Z,3.88
2023-02-19T22:46:54.124Z,3.40
2023-02-19T22:49:21.316Z,3.65
2023-02-19T22:52:01.369Z,3.70
2023-02-19T22:54:27.766Z,4.10
2023-02-19T22:56:54.625Z,3.83
2023-02-19T22:59:21.272Z,3.33
2023-02-19T23:01:48.752Z,3.70
2023-02-19T23:04:15.614Z,3.90
2023-02-19T23:06:44.169Z,3.67
2023-02-19T23:09:16.899Z,3.25
2023-02-19T23:11:43.663Z,3.95
2023-02-19T23:14:10.023Z,3.58
2023-02-19T23:16:36.605Z,3.85
2023-02-19T23:19:04.797Z,3.55
2023-02-19T23:21:31.599Z,3.50
2023-02-19T23:23:58.065Z,3.70
2023-02-19T23:26:24.691Z,3.53
2023-02-19T23:28:51.132Z,3.85
2023-02-19T23:31:17.901Z,4.00
2023-02-19T23:33:45.103Z,3.53
2023-02-19T23:36:12.826Z,4.22
2023-02-19T23:38:39.408Z,4.05
2023-02-19T23:41:13.873Z,2.75
2023-02-19T23:43:40.217Z,3.78
2023-02-19T23:46:06.781Z,3.72
2023-02-19T23:48:33.146Z,4.13
2023-02-19T23:50:59.821Z,3.28
2023-02-19T23:53:26.167Z,3.65
2023-02-19T23:55:52.572Z,3.90
2023-02-19T23:58:19.110Z,4.00
